sensor_id;sensor_type;location;lat;lon;timestamp;temperature;humidity
36444;DHT22;24692;45.642;13.806;2023-12-22T00:01:29;10.90;99.90
36444;DHT22;24692;45.642;13.806;2023-12-22T00:03:57;10.90;99.90
36444;DHT22;24692;45.642;13.806;2023-12-22T00:06:24;10.90;99.90
36444;DHT22;24692;45.642;13.806;2023-12-22T00:08:50;10.90;99.90
36444;DHT22;24692;45.642;13.806;2023-12-22T00:11:15;10.80;99.90
36444;DHT22;24692;45.642;13.806;2023-12-22T00:13:41;10.80;99.90
36444;DHT22;24692;45.642;13.806;2023-12-22T00:16:07;10.70;99.90
36444;DHT22;24692;45.642;13.806;2023-12-22T00:18:32;10.60;99.90
36444;DHT22;24692;45.642;13.806;2023-12-22T00:20:58;10.50;99.90
36444;DHT22;24692;45.642;13.806;2023-12-22T00:23:24;10.50;99.90
36444;DHT22;24692;45.642;13.806;2023-12-22T00:25:49;10.30;99.90
36444;DHT22;24692;45.642;13.806;2023-12-22T00:28:15;10.30;99.90
36444;DHT22;24692;45.642;13.806;2023-12-22T00:30:41;10.10;99.90
36444;DHT22;24692;45.642;13.806;2023-12-22T00:33:06;10.00;99.90
36444;DHT22;24692;45.642;13.806;2023-12-22T00:35:32;9.90;99.90
36444;DHT22;24692;45.642;13.806;2023-12-22T00:37:58;9.90;99.90
36444;DHT22;24692;45.642;13.806;2023-12-22T00:40:24;10.00;99.90
36444;DHT22;24692;45.642;13.806;2023-12-22T00:42:49;9.90;99.90
36444;DHT22;24692;45.642;13.806;2023-12-22T00:45:15;9.80;99.90
36444;DHT22;24692;45.642;13.806;2023-12-22T00:47:41;9.80;99.90
36444;DHT22;24692;45.642;13.806;2023-12-22T00:50:07;9.90;99.90
36444;DHT22;24692;45.642;13.806;2023-12-22T00:52:33;9.90;99.90
36444;DHT22;24692;45.642;13.806;2023-12-22T00:54:59;9.90;99.90
36444;DHT22;24692;45.642;13.806;2023-12-22T00:57:25;9.90;99.90
36444;DHT22;24692;45.642;13.806;2023-12-22T00:59:51;9.90;99.90
36444;DHT22;24692;45.642;13.806;2023-12-22T01:02:17;9.90;99.90
36444;DHT22;24692;45.642;13.806;2023-12-22T01:04:43;9.80;99.90
36444;DHT22;24692;45.642;13.806;2023-12-22T01:07:10;9.80;99.90
36444;DHT22;24692;45.642;13.806;2023-12-22T01:09:37;9.80;99.90
36444;DHT22;24692;45.642;13.806;2023-12-22T01:12:04;9.80;99.90
36444;DHT22;24692;45.642;13.806;2023-12-22T01:14:30;9.70;99.90
36444;DHT22;24692;45.642;13.806;2023-12-22T01:16:56;9.70;99.90
36444;DHT22;24692;45.642;13.806;2023-12-22T01:19:22;9.70;99.90
36444;DHT22;24692;45.642;13.806;2023-12-22T01:21:47;9.70;99.90
36444;DHT22;24692;45.642;13.806;2023-12-22T01:24:13;9.70;99.90
36444;DHT22;24692;45.642;13.806;2023-12-22T01:26:39;9.70;99.90
36444;DHT22;24692;45.642;13.806;2023-12-22T01:29:04;9.70;99.90
36444;DHT22;24692;45.642;13.806;2023-12-22T01:31:30;9.70;99.90
36444;DHT22;24692;45.642;13.806;2023-12-22T01:33:56;9.70;99.90
36444;DHT22;24692;45.642;13.806;2023-12-22T01:36:21;9.70;99.90
36444;DHT22;24692;45.642;13.806;2023-12-22T01:38:47;9.70;99.90
36444;DHT22;24692;45.642;13.806;2023-12-22T01:41:13;9.60;99.90
36444;DHT22;24692;45.642;13.806;2023-12-22T01:43:39;9.50;99.90
36444;DHT22;24692;45.642;13.806;2023-12-22T01:46:06;9.40;99.90
36444;DHT22;24692;45.642;13.806;2023-12-22T01:48:33;9.30;99.90
36444;DHT22;24692;45.642;13.806;2023-12-22T01:51:01;9.30;99.90
36444;DHT22;24692;45.642;13.806;2023-12-22T01:53:27;9.40;99.90
36444;DHT22;24692;45.642;13.806;2023-12-22T01:55:54;9.40;99.90
36444;DHT22;24692;45.642;13.806;2023-12-22T01:58:22;9.40;99.90
36444;DHT22;24692;45.642;13.806;2023-12-22T02:00:48;9.40;99.90
36444;DHT22;24692;45.642;13.806;2023-12-22T02:03:14;9.40;99.90
36444;DHT22;24692;45.642;13.806;2023-12-22T02:05:46;9.30;99.90
36444;DHT22;24692;45.642;13.806;2023-12-22T02:08:12;9.40;99.90
36444;DHT22;24692;45.642;13.806;2023-12-22T02:10:38;9.30;99.90
36444;DHT22;24692;45.642;13.806;2023-12-22T02:13:08;9.30;99.90
36444;DHT22;24692;45.642;13.806;2023-12-22T02:15:34;9.20;99.90
36444;DHT22;24692;45.642;13.806;2023-12-22T02:18:13;9.20;99.90
36444;DHT22;24692;45.642;13.806;2023-12-22T02:20:40;9.20;99.90
36444;DHT22;24692;45.642;13.806;2023-12-22T02:23:06;9.30;99.90
36444;DHT22;24692;45.642;13.806;2023-12-22T02:25:32;9.30;99.90
36444;DHT22;24692;45.642;13.806;2023-12-22T02:28:07;9.30;99.90
36444;DHT22;24692;45.642;13.806;2023-12-22T02:33:28;9.30;99.90
36444;DHT22;24692;45.642;13.806;2023-12-22T02:35:58;9.30;99.90
36444;DHT22;24692;45.642;13.806;2023-12-22T02:38:29;9.30;99.90
36444;DHT22;24692;45.642;13.806;2023-12-22T02:40:55;9.20;99.90
36444;DHT22;24692;45.642;13.806;2023-12-22T02:43:21;9.20;99.90
36444;DHT22;24692;45.642;13.806;2023-12-22T02:45:50;9.20;99.90
36444;DHT22;24692;45.642;13.806;2023-12-22T02:48:16;9.10;99.90
36444;DHT22;24692;45.642;13.806;2023-12-22T02:50:42;8.90;99.90
36444;DHT22;24692;45.642;13.806;2023-12-22T02:53:08;8.90;99.90
36444;DHT22;24692;45.642;13.806;2023-12-22T02:55:33;8.80;99.90
36444;DHT22;24692;45.642;13.806;2023-12-22T02:57:59;8.90;99.90
36444;DHT22;24692;45.642;13.806;2023-12-22T03:00:25;8.90;99.90
36444;DHT22;24692;45.642;13.806;2023-12-22T03:02:50;8.80;99.90
36444;DHT22;24692;45.642;13.806;2023-12-22T03:05:16;8.90;99.90
36444;DHT22;24692;45.642;13.806;2023-12-22T03:07:42;8.90;99.90
36444;DHT22;24692;45.642;13.806;2023-12-22T03:10:07;8.90;99.90
36444;DHT22;24692;45.642;13.806;2023-12-22T03:12:33;8.90;99.90
36444;DHT22;24692;45.642;13.806;2023-12-22T03:14:59;8.80;99.90
36444;DHT22;24692;45.642;13.806;2023-12-22T03:17:24;8.90;99.90
36444;DHT22;24692;45.642;13.806;2023-12-22T03:19:50;8.80;99.90
36444;DHT22;24692;45.642;13.806;2023-12-22T03:22:16;8.70;99.90
36444;DHT22;24692;45.642;13.806;2023-12-22T03:24:41;8.80;99.90
36444;DHT22;24692;45.642;13.806;2023-12-22T03:27:07;8.80;99.90
36444;DHT22;24692;45.642;13.806;2023-12-22T03:29:33;8.80;99.90
36444;DHT22;24692;45.642;13.806;2023-12-22T03:31:58;8.80;99.90
36444;DHT22;24692;45.642;13.806;2023-12-22T03:34:25;8.90;99.90
36444;DHT22;24692;45.642;13.806;2023-12-22T03:36:50;8.80;99.90
36444;DHT22;24692;45.642;13.806;2023-12-22T03:39:16;8.70;99.90
36444;DHT22;24692;45.642;13.806;2023-12-22T03:41:42;8.60;99.90
36444;DHT22;24692;45.642;13.806;2023-12-22T03:44:07;8.50;99.90
36444;DHT22;24692;45.642;13.806;2023-12-22T03:46:33;8.50;99.90
36444;DHT22;24692;45.642;13.806;2023-12-22T03:48:59;8.60;99.90
36444;DHT22;24692;45.642;13.806;2023-12-22T03:51:24;8.60;99.90
36444;DHT22;24692;45.642;13.806;2023-12-22T03:53:50;8.60;99.90
36444;DHT22;24692;45.642;13.806;2023-12-22T03:56:16;8.60;99.90
36444;DHT22;24692;45.642;13.806;2023-12-22T03:58:41;8.60;99.90
36444;DHT22;24692;45.642;13.806;2023-12-22T04:01:07;8.60;99.90
36444;DHT22;24692;45.642;13.806;2023-12-22T04:03:33;8.50;99.90
36444;DHT22;24692;45.642;13.806;2023-12-22T04:06:05;8.50;99.90
36444;DHT22;24692;45.642;13.806;2023-12-22T04:08:31;8.40;99.90
36444;DHT22;24692;45.642;13.806;2023-12-22T04:10:56;8.40;99.90
36444;DHT22;24692;45.642;13.806;2023-12-22T04:13:22;8.30;99.90
36444;DHT22;24692;45.642;13.806;2023-12-22T04:15:48;8.20;99.90
36444;DHT22;24692;45.642;13.806;2023-12-22T04:18:14;8.20;99.90
36444;DHT22;24692;45.642;13.806;2023-12-22T04:20:39;8.30;99.90
36444;DHT22;24692;45.642;13.806;2023-12-22T04:23:05;8.40;99.90
36444;DHT22;24692;45.642;13.806;2023-12-22T04:25:31;8.40;99.90
36444;DHT22;24692;45.642;13.806;2023-12-22T04:27:56;8.50;99.90
36444;DHT22;24692;45.642;13.806;2023-12-22T04:30:22;8.50;99.90
36444;DHT22;24692;45.642;13.806;2023-12-22T04:32:48;8.60;99.90
36444;DHT22;24692;45.642;13.806;2023-12-22T04:35:13;8.60;99.90
36444;DHT22;24692;45.642;13.806;2023-12-22T04:37:39;8.50;99.90
36444;DHT22;24692;45.642;13.806;2023-12-22T04:40:05;8.60;99.90
36444;DHT22;24692;45.642;13.806;2023-12-22T04:42:32;8.60;99.90
36444;DHT22;24692;45.642;13.806;2023-12-22T04:44:58;8.60;99.90
36444;DHT22;24692;45.642;13.806;2023-12-22T04:47:24;8.70;99.90
36444;DHT22;24692;45.642;13.806;2023-12-22T04:49:49;8.70;99.90
36444;DHT22;24692;45.642;13.806;2023-12-22T04:52:15;8.80;99.90
36444;DHT22;24692;45.642;13.806;2023-12-22T04:54:41;8.80;99.90
36444;DHT22;24692;45.642;13.806;2023-12-22T04:57:07;8.90;99.90
36444;DHT22;24692;45.642;13.806;2023-12-22T04:59:32;8.80;99.90
36444;DHT22;24692;45.642;13.806;2023-12-22T05:01:58;8.90;99.90
36444;DHT22;24692;45.642;13.806;2023-12-22T05:04:24;8.90;99.90
36444;DHT22;24692;45.642;13.806;2023-12-22T05:06:49;9.00;99.90
36444;DHT22;24692;45.642;13.806;2023-12-22T05:09:16;9.10;99.90
36444;DHT22;24692;45.642;13.806;2023-12-22T05:11:41;9.10;99.90
36444;DHT22;24692;45.642;13.806;2023-12-22T05:14:07;9.00;99.90
36444;DHT22;24692;45.642;13.806;2023-12-22T05:16:33;9.00;99.90
36444;DHT22;24692;45.642;13.806;2023-12-22T05:18:59;9.00;99.90
36444;DHT22;24692;45.642;13.806;2023-12-22T05:21:25;9.00;99.90
36444;DHT22;24692;45.642;13.806;2023-12-22T05:23:51;8.90;99.90
36444;DHT22;24692;45.642;13.806;2023-12-22T05:26:20;8.90;99.90
36444;DHT22;24692;45.642;13.806;2023-12-22T05:28:46;8.80;99.90
36444;DHT22;24692;45.642;13.806;2023-12-22T05:31:12;8.80;99.90
36444;DHT22;24692;45.642;13.806;2023-12-22T05:33:38;8.80;99.90
36444;DHT22;24692;45.642;13.806;2023-12-22T05:36:04;8.80;99.90
36444;DHT22;24692;45.642;13.806;2023-12-22T05:38:30;8.80;99.90
36444;DHT22;24692;45.642;13.806;2023-12-22T05:40:57;8.70;99.90
36444;DHT22;24692;45.642;13.806;2023-12-22T05:43:22;8.80;99.90
36444;DHT22;24692;45.642;13.806;2023-12-22T05:45:48;8.80;99.90
36444;DHT22;24692;45.642;13.806;2023-12-22T05:48:13;8.80;99.90
36444;DHT22;24692;45.642;13.806;2023-12-22T05:50:39;8.80;99.90
36444;DHT22;24692;45.642;13.806;2023-12-22T05:53:05;8.70;99.90
36444;DHT22;24692;45.642;13.806;2023-12-22T05:55:30;8.60;99.90
36444;DHT22;24692;45.642;13.806;2023-12-22T05:57:56;8.60;99.90
36444;DHT22;24692;45.642;13.806;2023-12-22T06:00:22;8.70;99.90
36444;DHT22;24692;45.642;13.806;2023-12-22T06:02:47;8.60;99.90
36444;DHT22;24692;45.642;13.806;2023-12-22T06:05:13;8.70;99.90
36444;DHT22;24692;45.642;13.806;2023-12-22T06:07:40;8.70;99.90
36444;DHT22;24692;45.642;13.806;2023-12-22T06:10:06;8.60;99.90
36444;DHT22;24692;45.642;13.806;2023-12-22T06:12:35;8.60;99.90
36444;DHT22;24692;45.642;13.806;2023-12-22T06:15:00;8.60;99.90
36444;DHT22;24692;45.642;13.806;2023-12-22T06:17:26;8.60;99.90
36444;DHT22;24692;45.642;13.806;2023-12-22T06:19:52;8.50;99.90
36444;DHT22;24692;45.642;13.806;2023-12-22T06:22:17;8.50;99.90
36444;DHT22;24692;45.642;13.806;2023-12-22T06:24:43;8.40;99.90
36444;DHT22;24692;45.642;13.806;2023-12-22T06:27:10;8.40;99.90
36444;DHT22;24692;45.642;13.806;2023-12-22T06:29:35;8.30;99.90
36444;DHT22;24692;45.642;13.806;2023-12-22T06:32:01;8.40;99.90
36444;DHT22;24692;45.642;13.806;2023-12-22T06:34:27;8.40;99.90
36444;DHT22;24692;45.642;13.806;2023-12-22T06:36:52;8.40;99.90
36444;DHT22;24692;45.642;13.806;2023-12-22T06:39:18;8.40;99.90
36444;DHT22;24692;45.642;13.806;2023-12-22T06:41:45;8.40;99.90
36444;DHT22;24692;45.642;13.806;2023-12-22T06:44:10;8.50;99.90
36444;DHT22;24692;45.642;13.806;2023-12-22T06:46:36;8.50;99.90
36444;DHT22;24692;45.642;13.806;2023-12-22T06:49:02;8.40;99.90
36444;DHT22;24692;45.642;13.806;2023-12-22T06:51:30;8.50;99.90
36444;DHT22;24692;45.642;13.806;2023-12-22T06:53:56;8.40;99.90
36444;DHT22;24692;45.642;13.806;2023-12-22T06:56:24;8.60;99.90
36444;DHT22;24692;45.642;13.806;2023-12-22T06:58:51;8.90;99.90
36444;DHT22;24692;45.642;13.806;2023-12-22T07:01:27;9.00;99.90
36444;DHT22;24692;45.642;13.806;2023-12-22T07:03:53;8.90;99.90
36444;DHT22;24692;45.642;13.806;2023-12-22T07:06:19;8.80;99.90
36444;DHT22;24692;45.642;13.806;2023-12-22T07:11:48;8.80;99.90
36444;DHT22;24692;45.642;13.806;2023-12-22T07:14:14;8.80;99.90
36444;DHT22;24692;45.642;13.806;2023-12-22T07:16:41;8.80;99.90
36444;DHT22;24692;45.642;13.806;2023-12-22T07:19:08;8.90;99.90
36444;DHT22;24692;45.642;13.806;2023-12-22T07:21:33;9.00;99.90
36444;DHT22;24692;45.642;13.806;2023-12-22T07:23:59;9.00;99.90
36444;DHT22;24692;45.642;13.806;2023-12-22T07:26:26;9.20;99.90
36444;DHT22;24692;45.642;13.806;2023-12-22T07:28:52;9.30;99.90
36444;DHT22;24692;45.642;13.806;2023-12-22T07:31:18;9.60;99.90
36444;DHT22;24692;45.642;13.806;2023-12-22T07:33:44;9.70;99.90
36444;DHT22;24692;45.642;13.806;2023-12-22T07:36:10;9.70;99.90
36444;DHT22;24692;45.642;13.806;2023-12-22T07:38:36;9.80;99.90
36444;DHT22;24692;45.642;13.806;2023-12-22T07:41:02;9.90;99.90
36444;DHT22;24692;45.642;13.806;2023-12-22T07:43:27;9.80;99.90
36444;DHT22;24692;45.642;13.806;2023-12-22T07:45:55;9.90;99.90
36444;DHT22;24692;45.642;13.806;2023-12-22T07:48:20;9.90;99.90
36444;DHT22;24692;45.642;13.806;2023-12-22T07:50:46;10.00;99.90
36444;DHT22;24692;45.642;13.806;2023-12-22T07:53:12;10.40;99.90
36444;DHT22;24692;45.642;13.806;2023-12-22T07:55:38;10.80;99.90
36444;DHT22;24692;45.642;13.806;2023-12-22T07:58:07;11.50;99.90
36444;DHT22;24692;45.642;13.806;2023-12-22T08:00:33;12.80;99.90
36444;DHT22;24692;45.642;13.806;2023-12-22T08:02:59;14.30;99.90
36444;DHT22;24692;45.642;13.806;2023-12-22T08:05:25;15.30;99.90
36444;DHT22;24692;45.642;13.806;2023-12-22T08:07:51;16.10;99.90
36444;DHT22;24692;45.642;13.806;2023-12-22T08:10:17;16.80;99.90
36444;DHT22;24692;45.642;13.806;2023-12-22T08:12:43;17.50;99.90
36444;DHT22;24692;45.642;13.806;2023-12-22T08:15:09;18.20;99.90
36444;DHT22;24692;45.642;13.806;2023-12-22T08:17:45;18.40;99.90
36444;DHT22;24692;45.642;13.806;2023-12-22T08:20:16;18.80;99.90
36444;DHT22;24692;45.642;13.806;2023-12-22T08:22:42;18.70;99.90
36444;DHT22;24692;45.642;13.806;2023-12-22T08:25:08;18.20;99.90
36444;DHT22;24692;45.642;13.806;2023-12-22T08:27:34;18.10;99.90
36444;DHT22;24692;45.642;13.806;2023-12-22T08:30:00;17.60;99.90
36444;DHT22;24692;45.642;13.806;2023-12-22T08:32:25;17.70;99.90
36444;DHT22;24692;45.642;13.806;2023-12-22T08:34:51;17.90;99.90
36444;DHT22;24692;45.642;13.806;2023-12-22T08:37:17;17.20;99.90
36444;DHT22;24692;45.642;13.806;2023-12-22T08:39:42;16.30;99.90
36444;DHT22;24692;45.642;13.806;2023-12-22T08:42:08;15.20;99.90
36444;DHT22;24692;45.642;13.806;2023-12-22T08:44:34;14.80;99.90
36444;DHT22;24692;45.642;13.806;2023-12-22T08:46:59;14.50;99.90
36444;DHT22;24692;45.642;13.806;2023-12-22T08:49:25;13.80;99.90
36444;DHT22;24692;45.642;13.806;2023-12-22T08:51:51;13.20;99.90
36444;DHT22;24692;45.642;13.806;2023-12-22T08:54:16;13.70;99.90
36444;DHT22;24692;45.642;13.806;2023-12-22T08:56:42;15.20;99.90
36444;DHT22;24692;45.642;13.806;2023-12-22T08:59:08;16.50;99.90
36444;DHT22;24692;45.642;13.806;2023-12-22T09:01:35;17.00;99.90
36444;DHT22;24692;45.642;13.806;2023-12-22T09:04:00;17.80;99.90
36444;DHT22;24692;45.642;13.806;2023-12-22T09:06:27;18.30;99.90
36444;DHT22;24692;45.642;13.806;2023-12-22T09:08:53;18.90;99.90
36444;DHT22;24692;45.642;13.806;2023-12-22T09:11:20;19.10;99.90
36444;DHT22;24692;45.642;13.806;2023-12-22T09:13:46;19.50;99.90
36444;DHT22;24692;45.642;13.806;2023-12-22T09:16:12;19.90;99.90
36444;DHT22;24692;45.642;13.806;2023-12-22T09:18:41;20.00;99.90
36444;DHT22;24692;45.642;13.806;2023-12-22T09:21:08;19.40;99.90
36444;DHT22;24692;45.642;13.806;2023-12-22T09:23:33;19.40;99.90
36444;DHT22;24692;45.642;13.806;2023-12-22T09:25:59;19.50;99.90
36444;DHT22;24692;45.642;13.806;2023-12-22T09:28:25;19.50;99.90
36444;DHT22;24692;45.642;13.806;2023-12-22T09:30:51;19.00;99.90
36444;DHT22;24692;45.642;13.806;2023-12-22T09:33:17;17.80;99.90
36444;DHT22;24692;45.642;13.806;2023-12-22T09:35:43;17.20;99.90
36444;DHT22;24692;45.642;13.806;2023-12-22T09:38:10;17.80;99.90
36444;DHT22;24692;45.642;13.806;2023-12-22T09:40:36;18.90;99.90
36444;DHT22;24692;45.642;13.806;2023-12-22T09:43:02;19.20;99.90
36444;DHT22;24692;45.642;13.806;2023-12-22T09:45:30;19.30;99.90
36444;DHT22;24692;45.642;13.806;2023-12-22T09:47:57;18.80;99.90
36444;DHT22;24692;45.642;13.806;2023-12-22T09:50:24;17.60;99.90
36444;DHT22;24692;45.642;13.806;2023-12-22T09:52:51;16.70;99.90
36444;DHT22;24692;45.642;13.806;2023-12-22T09:55:17;16.90;99.90
36444;DHT22;24692;45.642;13.806;2023-12-22T09:57:43;17.60;99.90
36444;DHT22;24692;45.642;13.806;2023-12-22T10:00:11;17.60;99.90
36444;DHT22;24692;45.642;13.806;2023-12-22T10:02:39;18.20;99.90
36444;DHT22;24692;45.642;13.806;2023-12-22T10:05:05;17.30;99.90
36444;DHT22;24692;45.642;13.806;2023-12-22T10:07:31;17.40;99.90
36444;DHT22;24692;45.642;13.806;2023-12-22T10:09:59;17.50;99.90
36444;DHT22;24692;45.642;13.806;2023-12-22T10:12:34;18.30;99.90
36444;DHT22;24692;45.642;13.806;2023-12-22T10:15:01;17.90;99.90
36444;DHT22;24692;45.642;13.806;2023-12-22T10:17:29;17.60;99.90
36444;DHT22;24692;45.642;13.806;2023-12-22T10:19:56;17.80;99.90
36444;DHT22;24692;45.642;13.806;2023-12-22T10:22:23;19.50;99.90
36444;DHT22;24692;45.642;13.806;2023-12-22T10:24:49;20.30;99.90
36444;DHT22;24692;45.642;13.806;2023-12-22T10:27:19;21.10;99.90
36444;DHT22;24692;45.642;13.806;2023-12-22T10:29:54;22.30;99.90
36444;DHT22;24692;45.642;13.806;2023-12-22T10:32:20;22.40;99.90
36444;DHT22;24692;45.642;13.806;2023-12-22T10:34:48;22.80;99.90
36444;DHT22;24692;45.642;13.806;2023-12-22T10:37:18;23.50;99.90
36444;DHT22;24692;45.642;13.806;2023-12-22T10:39:44;23.90;99.90
36444;DHT22;24692;45.642;13.806;2023-12-22T10:42:14;24.00;99.90
36444;DHT22;24692;45.642;13.806;2023-12-22T10:44:40;23.40;99.90
36444;DHT22;24692;45.642;13.806;2023-12-22T10:47:07;22.30;99.90
36444;DHT22;24692;45.642;13.806;2023-12-22T10:49:33;22.20;99.90
36444;DHT22;24692;45.642;13.806;2023-12-22T10:51:59;21.70;99.90
36444;DHT22;24692;45.642;13.806;2023-12-22T10:54:25;21.80;99.90
36444;DHT22;24692;45.642;13.806;2023-12-22T10:56:51;21.90;99.90
36444;DHT22;24692;45.642;13.806;2023-12-22T10:59:23;23.60;99.90
36444;DHT22;24692;45.642;13.806;2023-12-22T11:01:51;24.40;99.90
36444;DHT22;24692;45.642;13.806;2023-12-22T11:04:18;23.30;99.90
36444;DHT22;24692;45.642;13.806;2023-12-22T11:06:47;23.70;99.90
36444;DHT22;24692;45.642;13.806;2023-12-22T11:09:16;23.70;99.90
36444;DHT22;24692;45.642;13.806;2023-12-22T11:11:42;22.60;99.90
36444;DHT22;24692;45.642;13.806;2023-12-22T11:14:08;21.20;99.90
36444;DHT22;24692;45.642;13.806;2023-12-22T11:16:36;22.20;99.90
36444;DHT22;24692;45.642;13.806;2023-12-22T11:19:02;22.60;99.90
36444;DHT22;24692;45.642;13.806;2023-12-22T11:21:29;23.50;99.90
36444;DHT22;24692;45.642;13.806;2023-12-22T11:23:55;24.20;99.90
36444;DHT22;24692;45.642;13.806;2023-12-22T11:26:23;24.50;99.90
36444;DHT22;24692;45.642;13.806;2023-12-22T11:28:50;24.50;99.90
36444;DHT22;24692;45.642;13.806;2023-12-22T11:31:20;24.30;99.90
36444;DHT22;24692;45.642;13.806;2023-12-22T11:33:50;24.20;99.90
36444;DHT22;24692;45.642;13.806;2023-12-22T11:36:18;24.00;99.90
36444;DHT22;24692;45.642;13.806;2023-12-22T11:38:45;23.20;99.90
36444;DHT22;24692;45.642;13.806;2023-12-22T11:41:15;22.00;99.90
36444;DHT22;24692;45.642;13.806;2023-12-22T11:43:44;21.60;99.90
36444;DHT22;24692;45.642;13.806;2023-12-22T11:46:10;20.10;99.90
36444;DHT22;24692;45.642;13.806;2023-12-22T11:48:36;20.90;99.90
36444;DHT22;24692;45.642;13.806;2023-12-22T11:51:12;20.30;99.90
36444;DHT22;24692;45.642;13.806;2023-12-22T11:53:39;20.40;99.90
36444;DHT22;24692;45.642;13.806;2023-12-22T11:56:06;20.90;99.90
36444;DHT22;24692;45.642;13.806;2023-12-22T11:58:41;20.50;99.90
36444;DHT22;24692;45.642;13.806;2023-12-22T12:01:12;20.40;99.90
36444;DHT22;24692;45.642;13.806;2023-12-22T12:03:47;21.20;99.90
36444;DHT22;24692;45.642;13.806;2023-12-22T12:08:39;21.20;99.90
36444;DHT22;24692;45.642;13.806;2023-12-22T12:11:05;22.40;99.90
36444;DHT22;24692;45.642;13.806;2023-12-22T12:13:33;23.20;99.90
36444;DHT22;24692;45.642;13.806;2023-12-22T12:16:00;23.00;99.90
36444;DHT22;24692;45.642;13.806;2023-12-22T12:18:31;22.90;99.90
36444;DHT22;24692;45.642;13.806;2023-12-22T12:20:58;23.30;99.90
36444;DHT22;24692;45.642;13.806;2023-12-22T12:23:24;23.70;99.90
36444;DHT22;24692;45.642;13.806;2023-12-22T12:25:50;24.00;99.90
36444;DHT22;24692;45.642;13.806;2023-12-22T12:28:16;24.00;99.90
36444;DHT22;24692;45.642;13.806;2023-12-22T12:30:44;24.40;99.90
36444;DHT22;24692;45.642;13.806;2023-12-22T12:33:12;23.70;99.90
36444;DHT22;24692;45.642;13.806;2023-12-22T12:35:39;23.00;99.90
36444;DHT22;24692;45.642;13.806;2023-12-22T12:38:05;22.70;99.90
36444;DHT22;24692;45.642;13.806;2023-12-22T12:40:31;22.20;99.90
36444;DHT22;24692;45.642;13.806;2023-12-22T12:43:01;21.80;99.90
36444;DHT22;24692;45.642;13.806;2023-12-22T12:45:28;21.60;99.90
36444;DHT22;24692;45.642;13.806;2023-12-22T12:48:01;21.50;99.90
36444;DHT22;24692;45.642;13.806;2023-12-22T12:50:27;21.40;99.90
36444;DHT22;24692;45.642;13.806;2023-12-22T12:52:59;21.50;99.90
36444;DHT22;24692;45.642;13.806;2023-12-22T12:55:26;21.70;99.90
36444;DHT22;24692;45.642;13.806;2023-12-22T12:57:52;21.60;99.90
36444;DHT22;24692;45.642;13.806;2023-12-22T13:02:59;21.40;99.90
36444;DHT22;24692;45.642;13.806;2023-12-22T13:05:25;21.60;99.90
36444;DHT22;24692;45.642;13.806;2023-12-22T13:07:51;21.50;99.90
36444;DHT22;24692;45.642;13.806;2023-12-22T13:10:36;21.40;99.90
36444;DHT22;24692;45.642;13.806;2023-12-22T13:13:02;21.40;99.90
36444;DHT22;24692;45.642;13.806;2023-12-22T13:15:29;21.20;99.90
36444;DHT22;24692;45.642;13.806;2023-12-22T13:17:56;21.30;99.90
36444;DHT22;24692;45.642;13.806;2023-12-22T13:20:22;20.90;99.90
36444;DHT22;24692;45.642;13.806;2023-12-22T13:22:48;21.20;99.90
36444;DHT22;24692;45.642;13.806;2023-12-22T13:25:14;20.80;99.90
36444;DHT22;24692;45.642;13.806;2023-12-22T13:27:46;20.80;99.90
36444;DHT22;24692;45.642;13.806;2023-12-22T13:30:58;20.80;99.90
36444;DHT22;24692;45.642;13.806;2023-12-22T13:32:59;20.70;99.90
36444;DHT22;24692;45.642;13.806;2023-12-22T13:35:25;20.70;99.90
36444;DHT22;24692;45.642;13.806;2023-12-22T13:37:52;20.90;99.90
36444;DHT22;24692;45.642;13.806;2023-12-22T13:40:18;21.00;99.90
36444;DHT22;24692;45.642;13.806;2023-12-22T13:42:44;21.10;99.90
36444;DHT22;24692;45.642;13.806;2023-12-22T13:45:10;21.00;99.90
36444;DHT22;24692;45.642;13.806;2023-12-22T13:47:41;20.90;99.90
36444;DHT22;24692;45.642;13.806;2023-12-22T13:50:16;21.00;99.90
36444;DHT22;24692;45.642;13.806;2023-12-22T13:52:44;21.30;99.90
36444;DHT22;24692;45.642;13.806;2023-12-22T13:55:14;21.30;99.90
36444;DHT22;24692;45.642;13.806;2023-12-22T13:57:41;21.40;99.90
36444;DHT22;24692;45.642;13.806;2023-12-22T14:00:27;21.40;99.90
36444;DHT22;24692;45.642;13.806;2023-12-22T14:02:54;21.30;99.90
36444;DHT22;24692;45.642;13.806;2023-12-22T14:05:20;21.30;99.90
36444;DHT22;24692;45.642;13.806;2023-12-22T14:07:47;21.10;99.90
36444;DHT22;24692;45.642;13.806;2023-12-22T14:10:13;21.30;99.90
36444;DHT22;24692;45.642;13.806;2023-12-22T14:12:40;21.10;99.90
36444;DHT22;24692;45.642;13.806;2023-12-22T14:15:07;20.90;99.90
36444;DHT22;24692;45.642;13.806;2023-12-22T14:17:33;21.10;99.90
36444;DHT22;24692;45.642;13.806;2023-12-22T14:19:59;21.00;99.90
36444;DHT22;24692;45.642;13.806;2023-12-22T14:22:25;20.60;99.90
36444;DHT22;24692;45.642;13.806;2023-12-22T14:24:51;20.20;99.90
36444;DHT22;24692;45.642;13.806;2023-12-22T14:27:17;20.20;99.90
36444;DHT22;24692;45.642;13.806;2023-12-22T14:29:46;20.20;99.90
36444;DHT22;24692;45.642;13.806;2023-12-22T14:32:12;20.10;99.90
36444;DHT22;24692;45.642;13.806;2023-12-22T14:34:43;20.20;99.90
36444;DHT22;24692;45.642;13.806;2023-12-22T14:37:08;20.20;99.90
36444;DHT22;24692;45.642;13.806;2023-12-22T14:39:34;20.00;99.90
36444;DHT22;24692;45.642;13.806;2023-12-22T14:42:00;19.60;99.90
36444;DHT22;24692;45.642;13.806;2023-12-22T14:44:30;19.10;99.90
36444;DHT22;24692;45.642;13.806;2023-12-22T14:46:55;18.50;99.90
36444;DHT22;24692;45.642;13.806;2023-12-22T14:49:21;17.70;99.90
36444;DHT22;24692;45.642;13.806;2023-12-22T14:51:47;16.70;99.90
36444;DHT22;24692;45.642;13.806;2023-12-22T14:54:19;15.90;99.90
36444;DHT22;24692;45.642;13.806;2023-12-22T14:56:45;15.60;99.90
36444;DHT22;24692;45.642;13.806;2023-12-22T14:59:11;15.50;99.90
36444;DHT22;24692;45.642;13.806;2023-12-22T15:01:40;15.20;99.90
36444;DHT22;24692;45.642;13.806;2023-12-22T15:04:06;14.60;99.90
36444;DHT22;24692;45.642;13.806;2023-12-22T15:06:32;14.60;99.90
36444;DHT22;24692;45.642;13.806;2023-12-22T15:08:58;14.90;99.90
36444;DHT22;24692;45.642;13.806;2023-12-22T15:11:26;15.40;99.90
36444;DHT22;24692;45.642;13.806;2023-12-22T15:13:52;15.60;99.90
36444;DHT22;24692;45.642;13.806;2023-12-22T15:16:18;15.60;99.90
36444;DHT22;24692;45.642;13.806;2023-12-22T15:18:43;15.30;99.90
36444;DHT22;24692;45.642;13.806;2023-12-22T15:21:09;15.00;99.90
36444;DHT22;24692;45.642;13.806;2023-12-22T15:23:44;14.40;99.90
36444;DHT22;24692;45.642;13.806;2023-12-22T15:26:22;14.10;99.90
36444;DHT22;24692;45.642;13.806;2023-12-22T15:28:48;13.80;99.90
36444;DHT22;24692;45.642;13.806;2023-12-22T15:31:14;13.60;99.90